Hauptseite
METAR-TAF:

METAR-TAF

Flughäfen :

Tunis, Tunesien

Flughafen Tunis

Breite: 36-50N, Länge: 010-14E, Höhe: 3 m

Beobachtung

Neuester Wetterbericht von vor 16 Minuten, um 12:00 UTC
Wind 14 kt aus Nord/Nordost
Temperatur 20°C
Luftfeuchtigkeit 68%
Luftdruck 1012 hPa
Sichtweite 10 km oder mehr
Aufgelockert bewölkt in der Höhe von 2600 ft

METAR: DTTA 281200Z 02014KT 9999 SCT026 20/14 Q1012 NOSIG

Zeit: 13:16 (12:16 UTC)

Prognose

Neuester Wetterbericht von vor 1 Stunde und 16 Minuten, um 11:00 UTC
Gültige Prognose vom 28 um 12 UTC bis 29 um 12 UTC
Wind 12 kt aus Nord
Sichtweite 10 km oder mehr
Leicht bewölkt in der Höhe von 2600 ft
Wahrscheinlichkeit 40% :
Zeitweise
vom 28 um 15 UTC bis 29 um 06 UTC
Wind 17 kt aus Nord, Böen bis zu 27 kt

TAF: DTTA 281100Z 2812/2912 01012KT 9999 FEW026 PROB40 TEMPO 2815/2906 35017G27KT

Wetterbeobachtungen und Prognosen von mehr als 4000 Flughäfen (METAR und TAF Bericht).

Die verfügbaren Stationen werden durch gelbe und rote Markierungen auf der Karte dargestellt.

Führen Sie die Maus auf sie, um den Namen der Station zu sehen.

Darauf klicken, um die Beobachtung von Wetterbeobachtungen und Prognosen zu sehen.

Um die Karte zu ändern : klicken Sie auf den grünen Tasten mit einem schwarzen Kreuz Zum Vergrößern, auf den grünen Button mit einem Gedankenstrich zu verkleinern, oder auf die grünen Pfeile für benachbarte Karten.


METAR-TAF: